createdAt,value
2022-10-21T00:02:13.143Z,65.81
2022-10-21T00:05:15.925Z,65.81
2022-10-21T00:08:20.447Z,65.82
2022-10-21T00:11:23.012Z,65.85
2022-10-21T00:14:25.017Z,65.91
2022-10-21T00:17:27.254Z,65.97
2022-10-21T00:20:29.235Z,66.01
2022-10-21T00:23:31.435Z,66.06
2022-10-21T00:26:37.642Z,66.05
2022-10-21T00:29:41.009Z,66.07
2022-10-21T00:32:42.857Z,66.09
2022-10-21T00:35:54.693Z,66.10
2022-10-21T00:38:57.228Z,66.13
2022-10-21T00:42:00.672Z,66.12
2022-10-21T00:45:16.272Z,66.16
2022-10-21T00:48:36.986Z,66.20
2022-10-21T00:51:39.188Z,66.22
2022-10-21T00:54:43.225Z,66.23
2022-10-21T00:57:45.499Z,66.31
2022-10-21T01:00:47.819Z,66.29
2022-10-21T01:03:50.830Z,66.26
2022-10-21T01:06:55.313Z,66.29
2022-10-21T01:09:57.562Z,66.29
2022-10-21T01:13:04.217Z,66.33
2022-10-21T01:16:47.362Z,66.32
2022-10-21T01:20:08.207Z,66.40
2022-10-21T01:23:44.393Z,66.44
2022-10-21T01:27:03.837Z,66.44
2022-10-21T01:30:35.262Z,66.49
2022-10-21T01:33:52.319Z,66.47
2022-10-21T01:37:09.693Z,66.49
2022-10-21T01:40:20.137Z,66.50
2022-10-21T01:43:31.306Z,66.54
2022-10-21T01:46:48.724Z,66.62
2022-10-21T01:50:04.906Z,66.58
2022-10-21T01:53:10.319Z,66.61
2022-10-21T01:56:14.620Z,66.63
2022-10-21T01:59:19.867Z,66.66
2022-10-21T02:02:26.493Z,66.67
2022-10-21T02:05:32.195Z,66.70
2022-10-21T02:08:34.676Z,66.75
2022-10-21T02:11:39.003Z,66.76
2022-10-21T02:14:48.795Z,66.76
2022-10-21T02:17:57.826Z,66.80
2022-10-21T02:21:13.165Z,66.81
2022-10-21T02:24:37.850Z,66.84
2022-10-21T02:27:39.888Z,66.85
2022-10-21T02:30:58.129Z,66.86
2022-10-21T02:34:12.226Z,66.87
2022-10-21T02:37:23.948Z,66.87
2022-10-21T02:40:25.983Z,66.87
2022-10-21T02:43:48.350Z,66.86
2022-10-21T02:46:50.844Z,66.86
2022-10-21T02:49:53.021Z,66.87
2022-10-21T02:52:55.122Z,66.93
2022-10-21T02:55:57.774Z,66.99
2022-10-21T02:58:59.779Z,67.00
2022-10-21T03:02:02.328Z,67.02
2022-10-21T03:05:04.707Z,67.01
2022-10-21T03:08:07.030Z,67.04
2022-10-21T03:11:09.037Z,67.05
2022-10-21T03:14:11.570Z,67.04
2022-10-21T03:17:13.707Z,67.10
2022-10-21T03:20:16.223Z,67.09
2022-10-21T03:23:19.701Z,67.14
2022-10-21T03:26:22.164Z,67.14
2022-10-21T03:29:24.235Z,67.12
2022-10-21T03:32:26.533Z,67.17
2022-10-21T03:35:28.715Z,67.17
2022-10-21T03:38:31.439Z,67.16
2022-10-21T03:41:34.087Z,67.21
2022-10-21T03:44:36.353Z,67.20
2022-10-21T03:47:38.790Z,67.19
2022-10-21T03:50:41.155Z,67.20
2022-10-21T03:53:43.882Z,67.22
2022-10-21T03:56:47.072Z,67.24
2022-10-21T03:59:49.026Z,67.21
2022-10-21T04:02:51.583Z,67.19
2022-10-21T04:05:53.682Z,67.24
2022-10-21T04:08:56.243Z,67.24
2022-10-21T04:11:58.561Z,67.26
2022-10-21T04:15:03.089Z,67.26
2022-10-21T04:18:06.428Z,67.27
2022-10-21T04:21:09.218Z,67.28
2022-10-21T04:24:11.883Z,67.31
2022-10-21T04:27:14.244Z,67.28
2022-10-21T04:30:16.440Z,67.34
2022-10-21T04:33:18.817Z,67.35
2022-10-21T04:36:20.792Z,67.30
2022-10-21T04:39:23.051Z,67.32
2022-10-21T04:42:25.127Z,67.30
2022-10-21T04:45:28.040Z,67.29
2022-10-21T04:48:30.407Z,67.28
2022-10-21T04:51:32.969Z,67.31
2022-10-21T04:54:35.479Z,67.30
2022-10-21T04:57:37.959Z,67.31
2022-10-21T05:00:40.044Z,67.32
2022-10-21T05:03:42.373Z,67.34
2022-10-21T05:06:44.529Z,67.37
2022-10-21T05:09:48.296Z,67.37
2022-10-21T05:12:50.648Z,67.37
2022-10-21T05:15:53.159Z,67.38
2022-10-21T05:18:55.274Z,67.38
2022-10-21T05:21:57.766Z,67.40
2022-10-21T05:24:59.940Z,67.41
2022-10-21T05:28:02.550Z,67.42
2022-10-21T05:31:04.592Z,67.45
2022-10-21T05:34:07.256Z,67.47
2022-10-21T05:37:09.240Z,67.48
2022-10-21T05:40:12.074Z,67.53
2022-10-21T05:43:14.193Z,67.53
2022-10-21T05:46:16.613Z,67.54
2022-10-21T05:49:18.754Z,67.53
2022-10-21T05:52:21.257Z,67.58
2022-10-21T05:55:23.370Z,67.59
2022-10-21T05:58:27.511Z,67.55
2022-10-21T06:01:29.472Z,67.58
2022-10-21T06:04:36.324Z,67.59
2022-10-21T06:07:41.243Z,67.58
2022-10-21T06:10:44.638Z,67.58
2022-10-21T06:13:47.600Z,67.61
2022-10-21T06:16:50.197Z,67.63
2022-10-21T06:19:53.098Z,67.67
2022-10-21T06:22:55.766Z,67.67
2022-10-21T06:26:24.393Z,67.70
2022-10-21T06:29:28.123Z,67.72
2022-10-21T06:32:30.217Z,67.73
2022-10-21T06:35:32.910Z,67.70
2022-10-21T06:38:37.466Z,67.69
2022-10-21T06:41:39.919Z,67.69
2022-10-21T06:44:42.999Z,67.62
2022-10-21T06:47:46.027Z,67.60
2022-10-21T06:50:48.018Z,67.69
2022-10-21T06:53:57.128Z,67.73
2022-10-21T06:56:59.183Z,67.78
2022-10-21T07:00:02.518Z,67.71
2022-10-21T07:03:04.694Z,67.76
2022-10-21T07:06:07.273Z,67.68
2022-10-21T07:09:10.233Z,67.89
2022-10-21T07:12:14.119Z,67.97
2022-10-21T07:15:16.158Z,67.93
2022-10-21T07:18:18.838Z,67.96
2022-10-21T07:21:24.317Z,67.97
2022-10-21T07:24:26.774Z,68.00
2022-10-21T07:27:29.048Z,67.97
2022-10-21T07:30:31.378Z,67.95
2022-10-21T07:33:35.406Z,67.91
2022-10-21T07:36:40.782Z,67.88
2022-10-21T07:39:43.275Z,67.82
2022-10-21T07:42:45.674Z,67.78
2022-10-21T07:45:47.719Z,67.91
2022-10-21T07:48:51.342Z,67.79
2022-10-21T07:51:54.664Z,67.74
2022-10-21T07:54:56.862Z,67.61
2022-10-21T07:57:59.985Z,67.54
2022-10-21T08:01:05.278Z,67.54
2022-10-21T08:04:08.610Z,67.49
2022-10-21T08:07:13.211Z,67.49
2022-10-21T08:10:16.575Z,67.42
2022-10-21T08:13:20.902Z,67.41
2022-10-21T08:16:24.611Z,67.34
2022-10-21T08:19:30.746Z,67.36
2022-10-21T08:22:32.851Z,67.49
2022-10-21T08:25:35.644Z,67.72
2022-10-21T08:28:38.192Z,67.93
2022-10-21T08:31:40.899Z,68.07
2022-10-21T08:34:44.568Z,68.14
2022-10-21T08:37:49.372Z,68.28
2022-10-21T08:40:54.935Z,68.30
2022-10-21T08:44:06.837Z,68.26
2022-10-21T08:47:28.110Z,68.25
2022-10-21T08:50:40.132Z,68.17
2022-10-21T08:53:48.975Z,68.09
2022-10-21T08:56:56.959Z,68.06
2022-10-21T08:59:59.081Z,67.99
2022-10-21T09:03:10.375Z,67.95
2022-10-21T09:06:15.763Z,67.90
2022-10-21T09:09:38.937Z,67.84
2022-10-21T09:13:03.773Z,67.78
2022-10-21T09:16:15.211Z,67.76
2022-10-21T09:19:17.352Z,67.71
2022-10-21T09:22:41.308Z,68.13
2022-10-21T09:25:56.535Z,68.18
2022-10-21T09:29:03.890Z,67.86
2022-10-21T09:32:17.518Z,67.80
2022-10-21T09:35:26.930Z,67.48
2022-10-21T09:38:45.403Z,67.16
2022-10-21T09:41:59.139Z,67.08
2022-10-21T09:45:04.670Z,66.83
2022-10-21T09:48:20.563Z,66.97
2022-10-21T09:51:35.416Z,66.64
2022-10-21T09:54:42.302Z,66.38
2022-10-21T09:58:01.032Z,66.31
2022-10-21T10:01:05.997Z,66.14
2022-10-21T10:04:21.209Z,65.95
2022-10-21T10:07:26.418Z,65.82
2022-10-21T10:10:32.355Z,65.75
2022-10-21T10:13:37.884Z,65.66
2022-10-21T10:16:40.017Z,65.55
2022-10-21T10:19:42.570Z,65.53
2022-10-21T10:22:48.599Z,65.45
2022-10-21T10:25:53.235Z,65.34
2022-10-21T10:29:03.555Z,65.27
2022-10-21T10:32:14.923Z,65.20
2022-10-21T10:35:31.301Z,65.12
2022-10-21T10:38:40.281Z,65.02
2022-10-21T10:41:47.766Z,64.82
2022-10-21T10:44:57.412Z,64.63
2022-10-21T10:48:03.425Z,64.47
2022-10-21T10:51:26.320Z,64.38
2022-10-21T10:54:28.617Z,64.29
2022-10-21T10:57:40.326Z,64.21
2022-10-21T11:00:58.203Z,64.19
2022-10-21T11:04:13.538Z,64.13
2022-10-21T11:07:27.546Z,64.05
2022-10-21T11:10:55.179Z,64.08
2022-10-21T11:13:57.946Z,64.05
2022-10-21T11:17:13.220Z,64.07
2022-10-21T11:20:45.011Z,64.01
2022-10-21T11:24:28.932Z,64.12
2022-10-21T11:27:39.485Z,64.00
2022-10-21T11:30:42.095Z,64.18
2022-10-21T11:33:59.542Z,64.08
2022-10-21T11:37:18.287Z,64.11
2022-10-21T11:40:41.289Z,64.00
2022-10-21T11:44:17.680Z,64.08
2022-10-21T11:48:10.148Z,64.00
2022-10-21T11:51:38.425Z,63.90
2022-10-21T11:55:10.074Z,63.93
2022-10-21T11:59:11.121Z,63.86
2022-10-21T12:02:27.046Z,63.82
2022-10-21T12:05:39.726Z,63.82
2022-10-21T12:09:00.478Z,63.77
2022-10-21T12:12:07.759Z,63.72
2022-10-21T12:15:21.274Z,63.66
2022-10-21T12:18:27.759Z,63.68
2022-10-21T12:21:33.754Z,63.66
2022-10-21T12:24:52.130Z,63.61
2022-10-21T12:28:06.106Z,63.54
2022-10-21T12:31:22.923Z,63.52
2022-10-21T12:34:25.286Z,63.52
2022-10-21T12:37:52.791Z,63.46
2022-10-21T12:41:36.067Z,63.45
2022-10-21T12:44:56.651Z,63.65
2022-10-21T12:52:41.831Z,63.55
2022-10-21T12:56:01.417Z,63.54
2022-10-21T12:59:07.280Z,63.54
2022-10-21T13:02:30.658Z,63.56
2022-10-21T13:05:46.914Z,63.48
2022-10-21T13:08:55.088Z,63.83
2022-10-21T13:12:10.581Z,64.03
2022-10-21T13:15:21.844Z,63.93
2022-10-21T13:19:09.093Z,63.85
2022-10-21T13:22:14.948Z,63.85
2022-10-21T13:25:25.717Z,63.73
2022-10-21T13:28:28.870Z,63.84
2022-10-21T13:31:31.608Z,63.88
2022-10-21T13:34:40.160Z,63.86
2022-10-21T13:37:55.326Z,63.89
2022-10-21T13:41:02.681Z,63.81
2022-10-21T13:44:07.355Z,63.82
2022-10-21T13:47:30.625Z,63.73
2022-10-21T13:50:38.976Z,63.63
2022-10-21T13:53:46.125Z,63.72
2022-10-21T13:56:48.740Z,63.61
2022-10-21T14:00:17.370Z,63.55
2022-10-21T14:03:21.922Z,63.62
2022-10-21T14:06:32.037Z,63.58
2022-10-21T14:09:40.577Z,63.61
2022-10-21T14:12:45.208Z,63.50
2022-10-21T14:15:49.272Z,63.43
2022-10-21T14:18:51.511Z,63.45
2022-10-21T14:21:57.279Z,63.40
2022-10-21T14:25:02.972Z,63.58
2022-10-21T14:28:06.003Z,63.38
2022-10-21T14:31:12.393Z,63.40
2022-10-21T14:34:26.801Z,63.30
2022-10-21T14:37:45.289Z,63.18
2022-10-21T14:40:58.411Z,63.25
2022-10-21T14:44:18.249Z,63.27
2022-10-21T14:47:24.444Z,63.23
2022-10-21T14:50:26.960Z,63.23
2022-10-21T14:53:35.342Z,63.17
2022-10-21T14:56:41.331Z,63.14
2022-10-21T14:59:44.037Z,63.00
2022-10-21T15:02:46.993Z,62.97
2022-10-21T15:05:50.003Z,62.97
2022-10-21T15:09:06.909Z,62.88
2022-10-21T15:12:19.342Z,62.86
2022-10-21T15:15:40.571Z,62.82
2022-10-21T15:18:44.675Z,62.78
2022-10-21T15:21:53.519Z,62.83
2022-10-21T15:25:08.053Z,62.77
2022-10-21T15:28:16.361Z,62.84
2022-10-21T15:31:27.588Z,62.85
2022-10-21T15:34:31.406Z,62.84
2022-10-21T15:37:34.133Z,62.84
2022-10-21T15:40:37.474Z,62.89
2022-10-21T15:43:40.721Z,62.87
2022-10-21T15:46:46.970Z,62.92
2022-10-21T15:49:49.520Z,62.96
2022-10-21T15:52:52.910Z,63.00
2022-10-21T15:55:55.139Z,63.01
2022-10-21T15:58:57.426Z,63.05
2022-10-21T16:02:00.790Z,63.06
2022-10-21T16:05:03.763Z,63.11
2022-10-21T16:08:05.755Z,63.14
2022-10-21T16:11:13.472Z,63.21
2022-10-21T16:14:16.799Z,63.26
2022-10-21T16:17:19.590Z,63.31
2022-10-21T16:20:27.801Z,63.34
2022-10-21T16:23:32.183Z,63.36
2022-10-21T16:26:38.979Z,63.84
2022-10-21T16:29:42.021Z,64.00
2022-10-21T16:32:44.489Z,64.02
2022-10-21T16:35:48.921Z,64.04
2022-10-21T16:38:52.763Z,64.01
2022-10-21T16:41:56.230Z,63.89
2022-10-21T16:44:58.594Z,63.90
2022-10-21T16:48:03.364Z,63.92
2022-10-21T16:51:06.638Z,63.85
2022-10-21T16:54:10.215Z,63.87
2022-10-21T16:57:12.301Z,63.76
2022-10-21T17:00:15.566Z,63.77
2022-10-21T17:03:18.079Z,63.67
2022-10-21T17:06:25.627Z,63.58
2022-10-21T17:09:27.614Z,63.50
2022-10-21T17:12:32.934Z,63.54
2022-10-21T17:15:35.705Z,63.52
2022-10-21T17:18:38.679Z,63.57
2022-10-21T17:21:41.195Z,63.62
2022-10-21T17:24:44.581Z,63.50
2022-10-21T17:27:46.641Z,63.46
2022-10-21T17:30:49.625Z,63.44
2022-10-21T17:33:54.317Z,63.33
2022-10-21T17:36:57.423Z,63.19
2022-10-21T17:39:59.462Z,63.23
2022-10-21T17:43:01.848Z,63.16
2022-10-21T17:46:04.391Z,63.09
2022-10-21T17:49:07.120Z,63.06
2022-10-21T17:52:11.375Z,63.17
2022-10-21T17:55:14.057Z,63.10
2022-10-21T17:58:16.326Z,63.13
2022-10-21T18:01:19.052Z,63.16
2022-10-21T18:04:21.234Z,63.11
2022-10-21T18:07:23.881Z,63.05
2022-10-21T18:10:25.953Z,63.11
2022-10-21T18:13:31.472Z,63.09
2022-10-21T18:16:33.544Z,63.05
2022-10-21T18:19:36.438Z,63.22
2022-10-21T18:22:39.781Z,63.08
2022-10-21T18:25:42.668Z,63.05
2022-10-21T18:28:45.271Z,63.13
2022-10-21T18:31:48.000Z,63.03
2022-10-21T18:34:51.148Z,62.91
2022-10-21T18:37:54.279Z,62.85
2022-10-21T18:41:15.175Z,62.85
2022-10-21T18:44:18.747Z,62.79
2022-10-21T18:47:21.059Z,62.82
2022-10-21T18:50:23.391Z,62.81
2022-10-21T18:53:25.331Z,62.89
2022-10-21T18:56:27.953Z,62.91
2022-10-21T18:59:29.961Z,62.92
2022-10-21T19:02:32.512Z,62.92
2022-10-21T19:05:34.673Z,62.86
2022-10-21T19:08:37.041Z,62.73
2022-10-21T19:11:42.495Z,62.74
2022-10-21T19:14:45.408Z,62.85
2022-10-21T19:17:47.758Z,62.86
2022-10-21T19:20:49.995Z,62.82
2022-10-21T19:23:53.019Z,62.69
2022-10-21T19:26:57.853Z,62.86
2022-10-21T19:30:00.094Z,62.97
2022-10-21T19:33:02.691Z,63.00
2022-10-21T19:36:06.318Z,63.04
2022-10-21T19:39:08.711Z,63.00
2022-10-21T19:42:11.340Z,63.02
2022-10-21T19:45:17.400Z,62.99
2022-10-21T19:48:20.319Z,63.01
2022-10-21T19:51:24.755Z,63.02
2022-10-21T19:54:27.424Z,63.05
2022-10-21T19:57:29.554Z,62.98
2022-10-21T20:00:31.678Z,62.98
2022-10-21T20:03:33.860Z,62.82
2022-10-21T20:06:38.018Z,62.73
2022-10-21T20:09:40.379Z,62.69
2022-10-21T20:12:42.501Z,62.53
2022-10-21T20:15:47.711Z,62.78
2022-10-21T20:18:50.373Z,63.01
2022-10-21T20:21:52.682Z,63.22
2022-10-21T20:24:54.702Z,63.41
2022-10-21T20:27:57.332Z,63.55
2022-10-21T20:31:15.633Z,63.64
2022-10-21T20:34:17.979Z,63.74
2022-10-21T20:37:21.067Z,63.85
2022-10-21T20:40:27.301Z,63.92
2022-10-21T20:43:30.158Z,64.05
2022-10-21T20:46:35.365Z,64.10
2022-10-21T20:49:37.684Z,64.22
2022-10-21T20:52:40.163Z,64.49
2022-10-21T20:55:43.166Z,64.50
2022-10-21T20:58:45.470Z,64.32
2022-10-21T21:01:47.677Z,64.23
2022-10-21T21:04:50.506Z,64.10
2022-10-21T21:07:52.965Z,63.98
2022-10-21T21:11:04.323Z,63.90
2022-10-21T21:14:06.515Z,63.78
2022-10-21T21:17:08.663Z,63.70
2022-10-21T21:20:10.849Z,63.65
2022-10-21T21:23:13.370Z,63.68
2022-10-21T21:26:22.571Z,63.55
2022-10-21T21:29:24.961Z,63.47
2022-10-21T21:32:26.980Z,63.38
2022-10-21T21:35:29.708Z,63.43
2022-10-21T21:38:34.703Z,63.37
2022-10-21T21:41:38.154Z,63.37
2022-10-21T21:44:40.281Z,63.40
2022-10-21T21:47:42.684Z,63.26
2022-10-21T21:50:45.344Z,63.29
2022-10-21T21:53:48.576Z,63.26
2022-10-21T21:56:54.456Z,63.14
2022-10-21T22:00:04.256Z,63.17
2022-10-21T22:03:08.379Z,62.95
2022-10-21T22:06:11.510Z,62.90
2022-10-21T22:09:13.499Z,62.79
2022-10-21T22:12:17.042Z,62.86
2022-10-21T22:15:46.600Z,62.93
2022-10-21T22:18:44.072Z,62.99
2022-10-21T22:21:47.359Z,62.91
2022-10-21T22:24:49.959Z,62.82
2022-10-21T22:27:52.282Z,62.73
2022-10-21T22:31:03.558Z,62.78
2022-10-21T22:34:09.257Z,62.66
2022-10-21T22:37:14.649Z,62.74
2022-10-21T22:40:17.246Z,62.86
2022-10-21T22:43:19.419Z,62.94
2022-10-21T22:46:32.966Z,62.87
2022-10-21T22:49:36.102Z,62.73
2022-10-21T22:52:38.389Z,62.78
2022-10-21T22:55:41.104Z,62.80
2022-10-21T22:58:42.986Z,62.69
2022-10-21T23:01:45.694Z,62.67
2022-10-21T23:04:47.758Z,62.69
2022-10-21T23:07:50.703Z,62.71
2022-10-21T23:10:52.835Z,62.95
2022-10-21T23:14:02.647Z,63.15
2022-10-21T23:17:05.695Z,63.25
2022-10-21T23:20:08.682Z,63.42
2022-10-21T23:23:11.400Z,63.48
2022-10-21T23:26:14.211Z,63.59
2022-10-21T23:29:16.260Z,63.66
2022-10-21T23:32:18.507Z,63.78
2022-10-21T23:35:21.319Z,63.85
2022-10-21T23:38:24.422Z,63.89
2022-10-21T23:41:27.411Z,63.97
2022-10-21T23:44:29.851Z,64.03
2022-10-21T23:47:32.796Z,64.05
2022-10-21T23:50:37.205Z,64.09
2022-10-21T23:53:40.930Z,64.15
2022-10-21T23:56:43.549Z,64.19
2022-10-21T23:59:45.868Z,64.28
